RJCA(METAR)
04/28 17:00
METAR RJCA 280800Z 23009KT 9999 FEW030 BKN045 12/M04 Q1002 RMK
1CU030 5CU045 A2959=
戻る
トップページへ戻る
IMOC Co,.Ltd.